sensor_id;sensor_type;location;lat;lon;timestamp;pressure;altitude;pressure_sealevel;temperature;humidity
60019;BME280;45870;42.528;26.740;2022-07-29T00:02:21;99715.94;;;23.71;50.83
60019;BME280;45870;42.528;26.740;2022-07-29T00:04:46;99715.47;;;23.78;50.88
60019;BME280;45870;42.528;26.740;2022-07-29T00:07:12;99707.34;;;23.81;50.98
60019;BME280;45870;42.528;26.740;2022-07-29T00:09:38;99701.13;;;23.50;51.88
60019;BME280;45870;42.528;26.740;2022-07-29T00:12:04;99712.69;;;23.78;51.11
60019;BME280;45870;42.528;26.740;2022-07-29T00:14:30;99711.41;;;23.93;50.64
60019;BME280;45870;42.528;26.740;2022-07-29T00:16:55;99722.31;;;23.98;50.27
60019;BME280;45870;42.528;26.740;2022-07-29T00:19:21;99714.34;;;23.87;50.34
60019;BME280;45870;42.528;26.740;2022-07-29T00:21:47;99716.03;;;24.23;49.18
60019;BME280;45870;42.528;26.740;2022-07-29T00:24:12;99715.66;;;23.99;49.79
60019;BME280;45870;42.528;26.740;2022-07-29T00:26:38;99644.84;;;23.43;50.17
60019;BME280;45870;42.528;26.740;2022-07-29T00:29:04;99708.66;;;23.84;50.25
60019;BME280;45870;42.528;26.740;2022-07-29T00:31:31;99704.25;;;23.83;50.44
60019;BME280;45870;42.528;26.740;2022-07-29T00:33:57;99714.94;;;23.76;51.05
60019;BME280;45870;42.528;26.740;2022-07-29T00:36:23;99698.09;;;23.77;50.56
60019;BME280;45870;42.528;26.740;2022-07-29T00:38:50;99706.84;;;23.79;50.94
60019;BME280;45870;42.528;26.740;2022-07-29T00:41:17;99706.19;;;23.74;50.56
60019;BME280;45870;42.528;26.740;2022-07-29T00:43:43;99666.72;;;23.48;50.60
60019;BME280;45870;42.528;26.740;2022-07-29T00:46:09;99686.22;;;23.68;50.44
60019;BME280;45870;42.528;26.740;2022-07-29T00:48:35;99705.50;;;23.60;50.66
60019;BME280;45870;42.528;26.740;2022-07-29T00:51:02;99699.84;;;23.56;51.17
60019;BME280;45870;42.528;26.740;2022-07-29T00:53:29;99702.81;;;23.37;51.67
60019;BME280;45870;42.528;26.740;2022-07-29T00:55:56;99697.28;;;23.29;51.54
60019;BME280;45870;42.528;26.740;2022-07-29T00:58:23;99697.28;;;23.29;51.75
60019;BME280;45870;42.528;26.740;2022-07-29T01:00:49;99698.19;;;23.55;51.15
60019;BME280;45870;42.528;26.740;2022-07-29T01:03:15;99701.34;;;23.71;50.49
60019;BME280;45870;42.528;26.740;2022-07-29T01:05:42;99702.59;;;23.65;50.81
60019;BME280;45870;42.528;26.740;2022-07-29T01:08:11;99696.47;;;23.76;50.23
60019;BME280;45870;42.528;26.740;2022-07-29T01:10:38;99697.25;;;23.68;50.55
60019;BME280;45870;42.528;26.740;2022-07-29T01:13:05;99694.84;;;23.75;50.28
60019;BME280;45870;42.528;26.740;2022-07-29T01:15:32;99684.56;;;23.19;51.58
60019;BME280;45870;42.528;26.740;2022-07-29T01:18:14;99691.31;;;23.05;52.36
60019;BME280;45870;42.528;26.740;2022-07-29T01:24:06;99692.66;;;23.16;51.57
60019;BME280;45870;42.528;26.740;2022-07-29T01:26:47;99692.91;;;23.36;51.05
60019;BME280;45870;42.528;26.740;2022-07-29T01:31:56;99703.91;;;23.67;49.74
60019;BME280;45870;42.528;26.740;2022-07-29T01:37:13;99695.00;;;23.70;49.55
60019;BME280;45870;42.528;26.740;2022-07-29T01:39:43;99694.06;;;23.75;49.42
60019;BME280;45870;42.528;26.740;2022-07-29T01:42:31;99683.03;;;23.75;49.41
60019;BME280;45870;42.528;26.740;2022-07-29T01:48:00;99682.81;;;23.63;49.44
60019;BME280;45870;42.528;26.740;2022-07-29T01:50:35;99675.81;;;23.48;49.61
60019;BME280;45870;42.528;26.740;2022-07-29T01:53:07;99674.38;;;23.59;49.14
60019;BME280;45870;42.528;26.740;2022-07-29T01:55:38;99680.28;;;23.35;49.79
60019;BME280;45870;42.528;26.740;2022-07-29T01:58:05;99677.66;;;23.30;49.77
60019;BME280;45870;42.528;26.740;2022-07-29T02:00:33;99688.78;;;23.48;49.71
60019;BME280;45870;42.528;26.740;2022-07-29T02:03:04;99680.22;;;23.58;49.14
60019;BME280;45870;42.528;26.740;2022-07-29T02:05:32;99693.31;;;22.82;51.21
60019;BME280;45870;42.528;26.740;2022-07-29T02:08:01;99685.59;;;22.70;51.91
60019;BME280;45870;42.528;26.740;2022-07-29T02:10:30;99686.78;;;23.00;51.31
60019;BME280;45870;42.528;26.740;2022-07-29T02:12:57;99663.16;;;23.08;50.44
60019;BME280;45870;42.528;26.740;2022-07-29T02:15:28;99684.56;;;23.19;50.24
60019;BME280;45870;42.528;26.740;2022-07-29T02:18:02;99692.66;;;23.16;50.14
60019;BME280;45870;42.528;26.740;2022-07-29T02:20:29;99694.06;;;23.35;49.68
60019;BME280;45870;42.528;26.740;2022-07-29T02:22:57;99689.31;;;23.27;49.60
60019;BME280;45870;42.528;26.740;2022-07-29T02:25:25;99688.25;;;23.06;49.85
60019;BME280;45870;42.528;26.740;2022-07-29T02:27:52;99683.84;;;23.36;49.24
60019;BME280;45870;42.528;26.740;2022-07-29T02:30:22;99686.63;;;23.36;48.78
60019;BME280;45870;42.528;26.740;2022-07-29T02:32:50;99694.06;;;23.35;48.81
60019;BME280;45870;42.528;26.740;2022-07-29T02:35:18;99693.84;;;23.23;48.96
60019;BME280;45870;42.528;26.740;2022-07-29T02:37:45;99695.13;;;23.17;49.47
60019;BME280;45870;42.528;26.740;2022-07-29T02:40:34;99691.16;;;22.57;51.02
60019;BME280;45870;42.528;26.740;2022-07-29T02:43:03;99680.16;;;21.85;53.25
60019;BME280;45870;42.528;26.740;2022-07-29T02:45:31;99690.09;;;22.44;51.82
60019;BME280;45870;42.528;26.740;2022-07-29T02:47:59;99680.13;;;23.01;50.02
60019;BME280;45870;42.528;26.740;2022-07-29T02:50:32;99687.31;;;23.11;49.53
60019;BME280;45870;42.528;26.740;2022-07-29T02:53:19;99679.28;;;22.48;50.92
60019;BME280;45870;42.528;26.740;2022-07-29T02:55:54;99683.56;;;23.07;49.29
60019;BME280;45870;42.528;26.740;2022-07-29T03:00:58;99692.41;;;22.51;51.49
60019;BME280;45870;42.528;26.740;2022-07-29T03:03:28;99681.81;;;23.19;49.14
60019;BME280;45870;42.528;26.740;2022-07-29T03:05:56;99686.50;;;23.10;49.42
60019;BME280;45870;42.528;26.740;2022-07-29T03:08:24;99688.38;;;23.01;49.80
60019;BME280;45870;42.528;26.740;2022-07-29T03:10:52;99686.44;;;23.02;49.97
60019;BME280;45870;42.528;26.740;2022-07-29T03:13:19;99699.44;;;23.10;50.09
60019;BME280;45870;42.528;26.740;2022-07-29T03:15:45;99696.91;;;23.22;49.82
60019;BME280;45870;42.528;26.740;2022-07-29T03:18:12;99692.84;;;23.19;49.63
60019;BME280;45870;42.528;26.740;2022-07-29T03:20:38;99686.84;;;22.86;50.03
60019;BME280;45870;42.528;26.740;2022-07-29T03:23:05;99695.47;;;23.24;49.00
60019;BME280;45870;42.528;26.740;2022-07-29T03:25:30;99684.41;;;23.47;48.69
60019;BME280;45870;42.528;26.740;2022-07-29T03:27:56;99689.59;;;24.30;47.01
60019;BME280;45870;42.528;26.740;2022-07-29T03:30:23;99686.19;;;24.16;47.11
60019;BME280;45870;42.528;26.740;2022-07-29T03:32:50;99682.41;;;26.15;43.17
60019;BME280;45870;42.528;26.740;2022-07-29T03:35:16;99698.53;;;27.20;40.20
60019;BME280;45870;42.528;26.740;2022-07-29T03:37:43;99702.91;;;28.43;37.94
60019;BME280;45870;42.528;26.740;2022-07-29T03:40:11;99700.66;;;29.82;35.43
60019;BME280;45870;42.528;26.740;2022-07-29T03:42:39;99699.78;;;30.67;34.07
60019;BME280;45870;42.528;26.740;2022-07-29T03:45:12;99702.78;;;31.42;32.78
60019;BME280;45870;42.528;26.740;2022-07-29T03:47:43;99651.94;;;31.03;32.43
60019;BME280;45870;42.528;26.740;2022-07-29T03:50:12;99711.66;;;31.02;32.92
60019;BME280;45870;42.528;26.740;2022-07-29T03:52:40;99714.81;;;30.82;33.21
60019;BME280;45870;42.528;26.740;2022-07-29T03:55:07;99713.09;;;32.70;30.55
60019;BME280;45870;42.528;26.740;2022-07-29T03:57:34;99717.53;;;33.51;29.23
60019;BME280;45870;42.528;26.740;2022-07-29T04:00:03;99722.56;;;34.30;27.73
60019;BME280;45870;42.528;26.740;2022-07-29T04:02:31;99725.66;;;34.90;27.66
60019;BME280;45870;42.528;26.740;2022-07-29T04:04:58;99729.81;;;35.67;26.27
60019;BME280;45870;42.528;26.740;2022-07-29T04:07:24;99726.44;;;35.01;27.06
60019;BME280;45870;42.528;26.740;2022-07-29T04:09:49;99727.50;;;33.45;29.84
60019;BME280;45870;42.528;26.740;2022-07-29T04:12:15;99727.84;;;34.46;28.88
60019;BME280;45870;42.528;26.740;2022-07-29T04:14:41;99718.53;;;36.17;26.24
60019;BME280;45870;42.528;26.740;2022-07-29T04:17:07;99729.84;;;37.03;24.59
60019;BME280;45870;42.528;26.740;2022-07-29T04:19:33;99717.19;;;37.33;24.60
60019;BME280;45870;42.528;26.740;2022-07-29T04:22:00;99728.47;;;37.33;24.37
60019;BME280;45870;42.528;26.740;2022-07-29T04:24:26;99723.25;;;38.24;23.41
60019;BME280;45870;42.528;26.740;2022-07-29T04:26:51;99718.38;;;38.28;23.67
60019;BME280;45870;42.528;26.740;2022-07-29T04:29:17;99728.31;;;39.04;22.66
60019;BME280;45870;42.528;26.740;2022-07-29T04:31:44;99725.13;;;38.00;23.70
60019;BME280;45870;42.528;26.740;2022-07-29T04:34:10;99733.81;;;39.14;22.49
60019;BME280;45870;42.528;26.740;2022-07-29T04:36:36;99736.44;;;40.64;20.95
60019;BME280;45870;42.528;26.740;2022-07-29T04:39:02;99736.59;;;40.18;21.44
60019;BME280;45870;42.528;26.740;2022-07-29T04:41:28;99731.38;;;39.66;22.63
60019;BME280;45870;42.528;26.740;2022-07-29T04:43:54;99730.00;;;39.78;22.34
60019;BME280;45870;42.528;26.740;2022-07-29T04:46:21;99721.31;;;39.65;22.46
60019;BME280;45870;42.528;26.740;2022-07-29T04:48:47;99729.81;;;39.65;22.21
60019;BME280;45870;42.528;26.740;2022-07-29T04:51:16;99722.50;;;40.14;21.74
60019;BME280;45870;42.528;26.740;2022-07-29T04:53:43;99729.41;;;39.40;22.19
60019;BME280;45870;42.528;26.740;2022-07-29T04:56:08;99728.63;;;38.48;22.86
60019;BME280;45870;42.528;26.740;2022-07-29T04:58:35;99739.00;;;38.55;22.80
60019;BME280;45870;42.528;26.740;2022-07-29T05:01:01;99710.50;;;39.37;21.60
60019;BME280;45870;42.528;26.740;2022-07-29T05:03:28;99731.25;;;39.50;21.64
60019;BME280;45870;42.528;26.740;2022-07-29T05:05:54;99745.66;;;40.49;20.79
60019;BME280;45870;42.528;26.740;2022-07-29T05:08:20;99747.13;;;39.67;21.18
60019;BME280;45870;42.528;26.740;2022-07-29T05:10:46;99751.69;;;40.08;20.38
60019;BME280;45870;42.528;26.740;2022-07-29T05:13:11;99755.56;;;38.12;23.05
60019;BME280;45870;42.528;26.740;2022-07-29T05:15:37;99742.47;;;40.04;21.04
60019;BME280;45870;42.528;26.740;2022-07-29T05:18:03;99755.75;;;40.07;20.93
60019;BME280;45870;42.528;26.740;2022-07-29T05:20:30;99757.59;;;39.43;21.53
60019;BME280;45870;42.528;26.740;2022-07-29T05:22:59;99755.75;;;40.07;20.76
60019;BME280;45870;42.528;26.740;2022-07-29T05:25:26;99759.25;;;38.46;21.97
60019;BME280;45870;42.528;26.740;2022-07-29T05:27:52;99766.22;;;36.59;25.32
60019;BME280;45870;42.528;26.740;2022-07-29T05:30:18;99770.31;;;35.80;26.92
60019;BME280;45870;42.528;26.740;2022-07-29T05:32:45;99770.09;;;38.85;22.75
60019;BME280;45870;42.528;26.740;2022-07-29T05:35:12;99765.44;;;38.68;22.81
60019;BME280;45870;42.528;26.740;2022-07-29T05:37:39;99773.63;;;37.74;23.61
60019;BME280;45870;42.528;26.740;2022-07-29T05:40:05;99764.69;;;35.66;26.09
60019;BME280;45870;42.528;26.740;2022-07-29T05:42:31;99777.91;;;34.47;28.18
60019;BME280;45870;42.528;26.740;2022-07-29T05:44:57;99741.63;;;33.59;29.12
60019;BME280;45870;42.528;26.740;2022-07-29T05:47:24;99777.28;;;34.82;28.01
60019;BME280;45870;42.528;26.740;2022-07-29T05:49:50;99780.34;;;35.81;25.92
60019;BME280;45870;42.528;26.740;2022-07-29T05:52:16;99774.69;;;36.38;25.51
60019;BME280;45870;42.528;26.740;2022-07-29T05:54:43;99781.78;;;36.81;24.34
60019;BME280;45870;42.528;26.740;2022-07-29T05:57:20;99774.72;;;35.88;25.98
60019;BME280;45870;42.528;26.740;2022-07-29T05:59:46;99770.34;;;37.20;24.46
60019;BME280;45870;42.528;26.740;2022-07-29T06:02:13;99772.69;;;35.46;25.48
60019;BME280;45870;42.528;26.740;2022-07-29T06:04:39;99766.25;;;39.56;21.72
60019;BME280;45870;42.528;26.740;2022-07-29T06:07:04;99770.69;;;36.25;26.13
60019;BME280;45870;42.528;26.740;2022-07-29T06:09:30;99782.13;;;36.97;25.04
60019;BME280;45870;42.528;26.740;2022-07-29T06:11:56;99778.88;;;37.72;22.98
60019;BME280;45870;42.528;26.740;2022-07-29T06:14:23;99780.53;;;37.66;23.86
60019;BME280;45870;42.528;26.740;2022-07-29T06:16:48;99776.91;;;36.96;24.35
60019;BME280;45870;42.528;26.740;2022-07-29T06:19:14;99771.97;;;40.26;20.40
60019;BME280;45870;42.528;26.740;2022-07-29T06:21:43;99771.22;;;41.40;19.47
60019;BME280;45870;42.528;26.740;2022-07-29T06:24:14;99647.78;;;38.95;21.60
60019;BME280;45870;42.528;26.740;2022-07-29T06:26:41;99773.84;;;41.31;19.37
60019;BME280;45870;42.528;26.740;2022-07-29T06:29:07;99768.84;;;39.47;21.35
60019;BME280;45870;42.528;26.740;2022-07-29T06:31:36;99756.69;;;38.22;22.61
60019;BME280;45870;42.528;26.740;2022-07-29T06:34:03;99763.91;;;40.01;20.53
60019;BME280;45870;42.528;26.740;2022-07-29T06:36:28;99718.84;;;37.23;23.84
60019;BME280;45870;42.528;26.740;2022-07-29T06:38:54;99764.13;;;38.02;23.18
60019;BME280;45870;42.528;26.740;2022-07-29T06:41:20;99760.78;;;38.55;22.76
60019;BME280;45870;42.528;26.740;2022-07-29T06:43:46;99758.38;;;38.53;22.05
60019;BME280;45870;42.528;26.740;2022-07-29T06:46:15;99760.09;;;39.38;20.90
60019;BME280;45870;42.528;26.740;2022-07-29T06:48:43;99755.56;;;40.60;19.76
60019;BME280;45870;42.528;26.740;2022-07-29T06:51:10;99753.56;;;42.13;18.00
60019;BME280;45870;42.528;26.740;2022-07-29T06:53:38;99761.91;;;40.25;19.72
60019;BME280;45870;42.528;26.740;2022-07-29T06:56:05;99758.88;;;39.89;19.85
60019;BME280;45870;42.528;26.740;2022-07-29T06:58:31;99743.59;;;41.93;18.96
60019;BME280;45870;42.528;26.740;2022-07-29T07:01:00;99759.00;;;39.82;20.58
60019;BME280;45870;42.528;26.740;2022-07-29T07:03:27;99721.53;;;37.96;22.51
60019;BME280;45870;42.528;26.740;2022-07-29T07:05:54;99743.97;;;38.07;22.64
60019;BME280;45870;42.528;26.740;2022-07-29T07:08:20;99751.06;;;38.59;21.79
60019;BME280;45870;42.528;26.740;2022-07-29T07:10:48;99747.97;;;39.64;20.94
60019;BME280;45870;42.528;26.740;2022-07-29T07:13:14;99758.28;;;41.03;19.17
60019;BME280;45870;42.528;26.740;2022-07-29T07:15:40;99751.06;;;41.38;19.31
60019;BME280;45870;42.528;26.740;2022-07-29T07:18:06;99749.41;;;39.26;20.62
60019;BME280;45870;42.528;26.740;2022-07-29T07:20:33;99707.81;;;39.76;20.36
60019;BME280;45870;42.528;26.740;2022-07-29T07:22:59;99742.38;;;41.61;18.73
60019;BME280;45870;42.528;26.740;2022-07-29T07:25:25;99741.06;;;37.69;22.13
60019;BME280;45870;42.528;26.740;2022-07-29T07:27:51;99733.72;;;37.82;22.47
60019;BME280;45870;42.528;26.740;2022-07-29T07:30:17;99736.63;;;37.10;23.58
60019;BME280;45870;42.528;26.740;2022-07-29T07:32:43;99740.09;;;39.52;20.95
60019;BME280;45870;42.528;26.740;2022-07-29T07:35:09;99730.44;;;37.87;23.08
60019;BME280;45870;42.528;26.740;2022-07-29T07:37:35;99731.13;;;38.73;22.79
60019;BME280;45870;42.528;26.740;2022-07-29T07:40:02;99731.94;;;38.40;22.49
60019;BME280;45870;42.528;26.740;2022-07-29T07:42:48;99729.22;;;38.67;21.14
60019;BME280;45870;42.528;26.740;2022-07-29T07:45:14;99717.38;;;39.36;20.88
60019;BME280;45870;42.528;26.740;2022-07-29T07:47:40;99734.03;;;38.66;21.48
60019;BME280;45870;42.528;26.740;2022-07-29T07:50:08;99737.53;;;40.51;20.13
60019;BME280;45870;42.528;26.740;2022-07-29T07:52:34;99730.94;;;38.20;22.14
60019;BME280;45870;42.528;26.740;2022-07-29T07:55:00;99728.38;;;41.54;19.56
60019;BME280;45870;42.528;26.740;2022-07-29T07:57:26;99717.63;;;40.54;19.59
60019;BME280;45870;42.528;26.740;2022-07-29T07:59:52;99720.97;;;38.49;21.09
60019;BME280;45870;42.528;26.740;2022-07-29T08:02:18;99727.25;;;39.21;20.72
60019;BME280;45870;42.528;26.740;2022-07-29T08:04:43;99728.50;;;39.20;20.82
60019;BME280;45870;42.528;26.740;2022-07-29T08:07:10;99725.56;;;37.91;22.01
60019;BME280;45870;42.528;26.740;2022-07-29T08:09:36;99725.00;;;37.66;22.90
60019;BME280;45870;42.528;26.740;2022-07-29T08:12:02;99718.63;;;39.05;21.57
60019;BME280;45870;42.528;26.740;2022-07-29T08:14:30;99719.00;;;38.42;21.73
60019;BME280;45870;42.528;26.740;2022-07-29T08:16:56;99700.72;;;38.20;21.51
60019;BME280;45870;42.528;26.740;2022-07-29T08:19:21;99719.44;;;37.56;22.90
60019;BME280;45870;42.528;26.740;2022-07-29T08:21:47;99706.69;;;37.88;22.60
60019;BME280;45870;42.528;26.740;2022-07-29T08:24:13;99707.78;;;39.53;20.29
60019;BME280;45870;42.528;26.740;2022-07-29T08:26:57;99696.63;;;39.69;20.40
60019;BME280;45870;42.528;26.740;2022-07-29T08:29:23;99721.78;;;38.80;21.09
60019;BME280;45870;42.528;26.740;2022-07-29T08:31:48;99714.56;;;38.75;21.12
60019;BME280;45870;42.528;26.740;2022-07-29T08:34:14;99708.72;;;39.47;20.72
60019;BME280;45870;42.528;26.740;2022-07-29T08:36:40;99713.13;;;39.74;21.73
60019;BME280;45870;42.528;26.740;2022-07-29T08:39:07;99702.84;;;38.46;21.46
60019;BME280;45870;42.528;26.740;2022-07-29T08:41:32;99716.75;;;37.38;24.08
60019;BME280;45870;42.528;26.740;2022-07-29T08:43:58;99718.38;;;39.22;21.58
60019;BME280;45870;42.528;26.740;2022-07-29T08:46:24;99720.53;;;39.65;20.78
60019;BME280;45870;42.528;26.740;2022-07-29T08:48:50;99707.72;;;40.46;19.76
60019;BME280;45870;42.528;26.740;2022-07-29T08:51:19;99701.53;;;38.21;22.37
60019;BME280;45870;42.528;26.740;2022-07-29T08:53:46;99693.03;;;39.42;21.13
60019;BME280;45870;42.528;26.740;2022-07-29T08:56:15;99705.72;;;40.04;20.36
60019;BME280;45870;42.528;26.740;2022-07-29T08:58:45;99696.25;;;38.90;20.33
60019;BME280;45870;42.528;26.740;2022-07-29T09:01:14;99649.97;;;38.20;20.85
60019;BME280;45870;42.528;26.740;2022-07-29T09:03:43;99693.63;;;38.42;21.44
60019;BME280;45870;42.528;26.740;2022-07-29T09:06:14;99698.41;;;38.49;21.58
60019;BME280;45870;42.528;26.740;2022-07-29T09:08:40;99564.38;;;36.08;22.88
60019;BME280;45870;42.528;26.740;2022-07-29T09:11:06;99691.72;;;38.32;21.68
60019;BME280;45870;42.528;26.740;2022-07-29T09:13:33;99692.56;;;37.47;22.62
60019;BME280;45870;42.528;26.740;2022-07-29T09:15:59;99704.22;;;37.49;23.31
60019;BME280;45870;42.528;26.740;2022-07-29T09:18:42;99700.53;;;39.99;20.73
60019;BME280;45870;42.528;26.740;2022-07-29T09:21:12;99683.59;;;39.29;21.16
60019;BME280;45870;42.528;26.740;2022-07-29T09:24:11;99683.56;;;40.41;20.49
60019;BME280;45870;42.528;26.740;2022-07-29T09:26:40;99679.28;;;38.94;21.62
60019;BME280;45870;42.528;26.740;2022-07-29T09:29:15;99689.09;;;40.06;20.17
60019;BME280;45870;42.528;26.740;2022-07-29T09:31:47;99687.78;;;41.09;19.13
60019;BME280;45870;42.528;26.740;2022-07-29T09:34:15;99699.63;;;40.05;19.96
60019;BME280;45870;42.528;26.740;2022-07-29T09:36:47;99683.72;;;41.26;18.08
60019;BME280;45870;42.528;26.740;2022-07-29T09:39:14;99681.84;;;40.05;19.70
60019;BME280;45870;42.528;26.740;2022-07-29T09:41:49;99680.00;;;39.75;20.63
60019;BME280;45870;42.528;26.740;2022-07-29T09:44:18;99655.56;;;39.15;21.02
60019;BME280;45870;42.528;26.740;2022-07-29T09:47:01;99679.03;;;40.05;20.24
60019;BME280;45870;42.528;26.740;2022-07-29T09:49:36;99689.09;;;40.29;19.56
60019;BME280;45870;42.528;26.740;2022-07-29T09:52:16;99674.47;;;40.50;19.18
60019;BME280;45870;42.528;26.740;2022-07-29T09:54:42;99674.00;;;38.66;21.56
60019;BME280;45870;42.528;26.740;2022-07-29T09:57:20;99648.84;;;39.32;20.71
60019;BME280;45870;42.528;26.740;2022-07-29T10:02:34;99673.25;;;39.19;21.54
60019;BME280;45870;42.528;26.740;2022-07-29T10:05:02;99667.69;;;40.28;20.10
60019;BME280;45870;42.528;26.740;2022-07-29T10:07:55;99668.75;;;39.71;20.85
60019;BME280;45870;42.528;26.740;2022-07-29T10:10:24;99666.69;;;39.95;19.66
60019;BME280;45870;42.528;26.740;2022-07-29T10:13:00;99663.56;;;39.66;21.17
60019;BME280;45870;42.528;26.740;2022-07-29T10:15:28;99665.38;;;38.46;22.03
60019;BME280;45870;42.528;26.740;2022-07-29T10:17:55;99669.63;;;37.45;22.64
60019;BME280;45870;42.528;26.740;2022-07-29T10:20:24;99661.31;;;39.08;20.73
60019;BME280;45870;42.528;26.740;2022-07-29T10:22:50;99666.56;;;39.56;20.20
60019;BME280;45870;42.528;26.740;2022-07-29T10:25:17;99667.09;;;39.51;21.19
60019;BME280;45870;42.528;26.740;2022-07-29T10:27:45;99669.94;;;40.17;19.84
60019;BME280;45870;42.528;26.740;2022-07-29T10:30:12;99660.31;;;39.91;20.21
60019;BME280;45870;42.528;26.740;2022-07-29T10:43:56;99654.38;;;38.85;20.30
60019;BME280;45870;42.528;26.740;2022-07-29T10:46:23;99641.41;;;38.91;20.59
60019;BME280;45870;42.528;26.740;2022-07-29T10:49:10;99648.47;;;38.46;21.10
60019;BME280;45870;42.528;26.740;2022-07-29T10:59:36;99624.53;;;37.90;21.52
60019;BME280;45870;42.528;26.740;2022-07-29T11:02:01;99633.41;;;37.44;22.16
60019;BME280;45870;42.528;26.740;2022-07-29T11:07:09;99631.41;;;38.23;21.87
60019;BME280;45870;42.528;26.740;2022-07-29T11:09:35;99637.72;;;38.04;20.58
60019;BME280;45870;42.528;26.740;2022-07-29T11:12:01;99632.84;;;38.99;20.67
60019;BME280;45870;42.528;26.740;2022-07-29T11:17:18;99494.44;;;36.24;22.42
60019;BME280;45870;42.528;26.740;2022-07-29T11:19:44;99619.00;;;37.79;21.76
60019;BME280;45870;42.528;26.740;2022-07-29T11:22:11;99619.59;;;39.19;20.36
60019;BME280;45870;42.528;26.740;2022-07-29T11:24:40;99616.34;;;38.36;20.82
60019;BME280;45870;42.528;26.740;2022-07-29T11:27:13;99612.78;;;37.61;21.11
60019;BME280;45870;42.528;26.740;2022-07-29T11:29:57;99609.34;;;37.39;21.53
60019;BME280;45870;42.528;26.740;2022-07-29T11:32:25;99614.75;;;37.16;22.09
60019;BME280;45870;42.528;26.740;2022-07-29T11:35:17;99614.44;;;37.55;20.76
60019;BME280;45870;42.528;26.740;2022-07-29T11:40:29;99606.06;;;37.85;20.83
60019;BME280;45870;42.528;26.740;2022-07-29T11:42:55;99606.09;;;38.49;19.58
60019;BME280;45870;42.528;26.740;2022-07-29T11:45:22;99594.00;;;37.44;20.71
60019;BME280;45870;42.528;26.740;2022-07-29T11:47:52;99604.44;;;38.22;20.03
60019;BME280;45870;42.528;26.740;2022-07-29T11:50:29;99608.47;;;38.55;19.38
60019;BME280;45870;42.528;26.740;2022-07-29T11:52:55;99596.44;;;37.83;19.84
60019;BME280;45870;42.528;26.740;2022-07-29T11:55:23;99602.66;;;36.64;21.67
60019;BME280;45870;42.528;26.740;2022-07-29T11:57:51;99592.84;;;37.82;20.49
60019;BME280;45870;42.528;26.740;2022-07-29T12:02:56;99562.91;;;37.95;19.69
60019;BME280;45870;42.528;26.740;2022-07-29T12:05:37;99593.97;;;39.06;19.37
60019;BME280;45870;42.528;26.740;2022-07-29T12:08:08;99589.28;;;38.42;20.09
60019;BME280;45870;42.528;26.740;2022-07-29T12:10:35;99593.72;;;38.43;19.84
60019;BME280;45870;42.528;26.740;2022-07-29T12:13:01;99586.00;;;37.80;19.91
60019;BME280;45870;42.528;26.740;2022-07-29T12:15:26;99584.63;;;37.98;20.21
60019;BME280;45870;42.528;26.740;2022-07-29T12:17:52;99576.47;;;38.65;19.30
60019;BME280;45870;42.528;26.740;2022-07-29T12:20:29;99583.69;;;38.39;19.32
60019;BME280;45870;42.528;26.740;2022-07-29T12:22:55;99570.66;;;38.18;19.90
60019;BME280;45870;42.528;26.740;2022-07-29T12:25:23;99583.28;;;36.80;20.99
60019;BME280;45870;42.528;26.740;2022-07-29T12:28:00;99569.78;;;37.91;19.85
60019;BME280;45870;42.528;26.740;2022-07-29T12:30:41;99569.84;;;36.98;20.27
60019;BME280;45870;42.528;26.740;2022-07-29T12:33:27;99573.69;;;38.34;19.50
60019;BME280;45870;42.528;26.740;2022-07-29T12:35:56;99565.91;;;38.12;19.60
60019;BME280;45870;42.528;26.740;2022-07-29T12:38:23;99563.44;;;37.42;19.81
60019;BME280;45870;42.528;26.740;2022-07-29T12:40:51;99560.88;;;38.26;19.27
60019;BME280;45870;42.528;26.740;2022-07-29T12:43:22;99440.88;;;37.68;19.57
60019;BME280;45870;42.528;26.740;2022-07-29T12:45:50;99570.06;;;39.14;18.07
60019;BME280;45870;42.528;26.740;2022-07-29T12:48:17;99555.25;;;38.26;19.29
60019;BME280;45870;42.528;26.740;2022-07-29T12:50:57;99560.47;;;38.58;18.73
60019;BME280;45870;42.528;26.740;2022-07-29T12:53:25;99551.16;;;38.00;18.89
60019;BME280;45870;42.528;26.740;2022-07-29T12:55:53;99553.03;;;37.39;19.41
60019;BME280;45870;42.528;26.740;2022-07-29T12:58:30;99549.34;;;38.17;18.74
60019;BME280;45870;42.528;26.740;2022-07-29T13:01:01;99543.47;;;39.58;17.69
60019;BME280;45870;42.528;26.740;2022-07-29T13:03:27;99551.53;;;39.99;17.09
60019;BME280;45870;42.528;26.740;2022-07-29T13:05:53;99554.66;;;39.42;17.58
60019;BME280;45870;42.528;26.740;2022-07-29T13:08:19;99547.28;;;39.68;17.50
60019;BME280;45870;42.528;26.740;2022-07-29T13:10:45;99533.09;;;39.91;17.12
60019;BME280;45870;42.528;26.740;2022-07-29T13:13:14;99536.41;;;39.47;18.18
60019;BME280;45870;42.528;26.740;2022-07-29T13:15:42;99508.13;;;39.89;17.05
60019;BME280;45870;42.528;26.740;2022-07-29T13:18:31;99538.50;;;39.62;17.00
60019;BME280;45870;42.528;26.740;2022-07-29T13:21:10;99536.44;;;39.23;17.10
60019;BME280;45870;42.528;26.740;2022-07-29T13:23:37;99535.75;;;38.92;18.20
60019;BME280;45870;42.528;26.740;2022-07-29T13:26:08;99534.53;;;38.93;18.29
60019;BME280;45870;42.528;26.740;2022-07-29T13:28:34;99532.06;;;40.01;16.70
60019;BME280;45870;42.528;26.740;2022-07-29T13:31:01;99538.31;;;39.73;17.46
60019;BME280;45870;42.528;26.740;2022-07-29T13:33:26;99531.19;;;39.22;17.64
60019;BME280;45870;42.528;26.740;2022-07-29T13:35:52;99534.06;;;40.04;17.10
60019;BME280;45870;42.528;26.740;2022-07-29T13:38:18;99525.03;;;39.50;16.79
60019;BME280;45870;42.528;26.740;2022-07-29T13:40:44;99509.72;;;38.28;18.74
60019;BME280;45870;42.528;26.740;2022-07-29T13:43:10;99519.22;;;39.37;17.99
60019;BME280;45870;42.528;26.740;2022-07-29T13:45:37;99519.81;;;38.25;18.37